Time;durP1;ratioP1;P1;durP2;ratioP2;P2;SDS_P1;SDS_P2;PMS_P1;PMS_P2;Temp;Humidity;BMP_temperature;BMP_pressure;BME280_temperature;BME280_humidity;BME280_pressure;Samples;Min_cycle;Max_cycle;Signal;HPM_P1;HPM_P2
2022/05/07 00:01:03;;;;;;;2.55;2.35;;;16.20;57.80;;;;;;5081063;28;20093;-73
2022/05/07 00:03:29;;;;;;;2.15;2.03;;;16.20;57.80;;;;;;5094885;28;20035;-74
2022/05/07 00:05:54;;;;;;;3.63;1.80;;;16.20;57.80;;;;;;5112947;28;20505;-72
2022/05/07 00:08:20;;;;;;;2.05;1.92;;;16.20;57.80;;;;;;5094890;28;20059;-73
2022/05/07 00:10:46;;;;;;;2.40;1.83;;;16.10;57.80;;;;;;5112833;28;20127;-73
2022/05/07 00:13:12;;;;;;;2.45;2.25;;;16.10;57.80;;;;;;5112673;28;20043;-73
2022/05/07 00:15:38;;;;;;;2.25;2.05;;;16.10;57.90;;;;;;5094669;28;20086;-67
2022/05/07 00:18:05;;;;;;;2.40;2.20;;;16.10;57.90;;;;;;5094601;28;20093;-73
2022/05/07 00:20:33;;;;;;;2.83;2.30;;;16.10;57.90;;;;;;5094494;28;20051;-73
2022/05/07 00:22:59;;;;;;;2.58;1.90;;;16.10;57.90;;;;;;5112679;28;20494;-73
2022/05/07 00:25:26;;;;;;;2.85;2.30;;;16.10;58.00;;;;;;5094100;28;20055;-75
2022/05/07 00:27:52;;;;;;;2.60;2.40;;;16.10;58.70;;;;;;5094505;28;20036;-72
2022/05/07 00:30:18;;;;;;;2.10;1.77;;;16.10;58.00;;;;;;5094455;28;20403;-68
2022/05/07 00:32:44;;;;;;;2.88;2.35;;;16.10;58.00;;;;;;5094163;28;20070;-70
2022/05/07 00:35:10;;;;;;;2.55;2.35;;;16.00;58.00;;;;;;5112368;28;20073;-74
2022/05/07 00:37:37;;;;;;;2.35;2.13;;;16.00;58.00;;;;;;5094213;28;20093;-65
2022/05/07 00:40:06;;;;;;;2.60;2.40;;;16.00;58.10;;;;;;5112290;28;20047;-74
2022/05/07 00:42:32;;;;;;;2.53;2.33;;;16.00;58.20;;;;;;5093810;28;20035;-74
2022/05/07 00:44:57;;;;;;;2.35;2.08;;;16.00;58.20;;;;;;5112079;28;20047;-73
2022/05/07 00:47:26;;;;;;;2.58;2.38;;;16.00;58.20;;;;;;5093766;28;20054;-73
2022/05/07 00:51:33;;;;;;;2.88;2.25;;;16.00;58.20;;;;;;5094001;28;20040;-73
2022/05/07 00:52:46;;;;;;;3.22;2.20;;;16.00;58.20;;;;;;5093833;28;20270;-68
2022/05/07 00:55:13;;;;;;;3.88;2.45;;;16.00;58.30;;;;;;5093940;28;20076;-66
2022/05/07 00:57:39;;;;;;;2.70;2.50;;;16.00;58.30;;;;;;5112436;28;20040;-65
2022/05/07 01:00:06;;;;;;;2.53;2.33;;;16.00;58.30;;;;;;5112128;28;20038;-73
2022/05/07 01:02:32;;;;;;;2.30;2.10;;;16.00;58.30;;;;;;5112198;28;20079;-65
2022/05/07 01:04:58;;;;;;;2.53;2.33;;;16.00;58.40;;;;;;5112077;28;20092;-64
2022/05/07 01:07:24;;;;;;;2.53;2.10;;;16.00;58.40;;;;;;5093985;28;20086;-70
2022/05/07 01:09:50;;;;;;;2.10;1.95;;;15.90;58.40;;;;;;5094040;28;20071;-74
2022/05/07 01:12:20;;;;;;;2.72;1.98;;;15.90;58.40;;;;;;5093756;28;20477;-74
2022/05/07 01:14:45;;;;;;;2.22;2.03;;;16.00;58.50;;;;;;5094152;28;20040;-68
2022/05/07 01:17:11;;;;;;;2.50;2.30;;;15.90;58.40;;;;;;5094070;28;20422;-71
2022/05/07 01:19:37;;;;;;;2.72;2.42;;;15.90;58.40;;;;;;5093867;28;20376;-65
2022/05/07 01:22:03;;;;;;;1.92;1.73;;;15.90;58.50;;;;;;5093747;28;20073;-73
2022/05/07 01:24:28;;;;;;;3.22;2.00;;;15.90;58.50;;;;;;5111952;28;20039;-73
2022/05/07 01:26:54;;;;;;;2.72;2.05;;;15.90;58.50;;;;;;5093597;28;20047;-73
2022/05/07 01:29:20;;;;;;;2.50;2.13;;;15.90;58.50;;;;;;5111912;28;20028;-73
2022/05/07 01:31:46;;;;;;;3.15;2.15;;;15.90;58.50;;;;;;5093661;28;20059;-72
2022/05/07 01:34:12;;;;;;;2.63;2.20;;;15.90;58.60;;;;;;5093889;28;20036;-74
2022/05/07 01:36:38;;;;;;;3.05;2.75;;;15.90;58.60;;;;;;5093552;28;20077;-73
2022/05/07 01:39:04;;;;;;;3.00;2.47;;;15.90;58.60;;;;;;5092830;28;20418;-73
2022/05/07 01:41:30;;;;;;;1.67;1.58;;;15.90;58.60;;;;;;5093835;28;20043;-65
2022/05/07 01:43:55;;;;;;;3.63;2.22;;;15.90;58.70;;;;;;5093660;28;20461;-69
2022/05/07 01:49:06;;;;;;;3.15;2.25;;;15.90;58.70;;;;;;5093655;28;20483;-64
2022/05/07 01:51:33;;;;;;;3.33;2.28;;;15.90;58.70;;;;;;5093704;28;20035;-74
2022/05/07 01:53:59;;;;;;;2.33;2.13;;;15.80;58.70;;;;;;5095824;28;20043;-71
2022/05/07 01:56:24;;;;;;;3.78;2.30;;;15.90;58.70;;;;;;5097411;28;20066;-73
2022/05/07 01:58:50;;;;;;;3.08;2.60;;;15.80;58.70;;;;;;5097056;28;20461;-72
2022/05/07 02:01:16;;;;;;;3.05;2.78;;;15.80;58.70;;;;;;5097186;28;20092;-73
2022/05/07 02:03:42;;;;;;;3.25;2.95;;;15.80;58.70;;;;;;5097234;28;20149;-74
2022/05/07 02:06:08;;;;;;;2.35;2.15;;;15.80;58.70;;;;;;5115233;28;20074;-73
2022/05/07 02:08:33;;;;;;;2.38;2.17;;;15.80;58.70;;;;;;5097053;28;20540;-64
2022/05/07 02:11:01;;;;;;;2.67;2.15;;;15.80;58.80;;;;;;5097138;28;20576;-69
2022/05/07 02:13:27;;;;;;;3.40;2.38;;;15.90;58.80;;;;;;5096769;28;20042;-64
2022/05/07 02:15:53;;;;;;;2.40;2.20;;;15.80;58.80;;;;;;5096724;28;20048;-74
2022/05/07 02:18:18;;;;;;;2.47;2.28;;;15.80;58.80;;;;;;5096656;28;20050;-73
2022/05/07 02:20:44;;;;;;;3.15;2.40;;;15.80;58.80;;;;;;5096942;28;20069;-73
2022/05/07 02:23:10;;;;;;;3.15;2.33;;;15.80;58.90;;;;;;5096838;28;20039;-65
2022/05/07 02:25:35;;;;;;;2.33;1.70;;;15.80;58.90;;;;;;5096407;28;20406;-73
2022/05/07 02:28:03;;;;;;;2.92;2.28;;;15.80;58.90;;;;;;5114692;28;20044;-73
2022/05/07 02:30:29;;;;;;;3.42;2.17;;;15.80;58.90;;;;;;5096779;28;20169;-65
2022/05/07 02:32:54;;;;;;;2.85;2.55;;;15.80;58.90;;;;;;5096758;28;20069;-74
2022/05/07 02:35:21;;;;;;;3.25;2.95;;;15.80;58.90;;;;;;5096428;28;20054;-73
2022/05/07 02:37:47;;;;;;;3.83;2.88;;;15.80;59.00;;;;;;5114648;28;20387;-74
2022/05/07 02:40:13;;;;;;;4.20;2.28;;;15.80;58.90;;;;;;5114408;28;20032;-72
2022/05/07 02:42:39;;;;;;;2.63;2.20;;;15.80;59.00;;;;;;5096497;28;20040;-73
2022/05/07 02:45:07;;;;;;;2.50;2.30;;;15.80;59.00;;;;;;5096355;28;20421;-73
2022/05/07 02:47:34;;;;;;;3.00;2.53;;;15.80;59.00;;;;;;5095882;28;20048;-73
2022/05/07 02:50:01;;;;;;;2.60;2.22;;;15.80;59.00;;;;;;5096044;28;20690;-65
2022/05/07 02:52:26;;;;;;;2.47;2.28;;;15.80;59.10;;;;;;5096036;28;20042;-73
2022/05/07 02:54:52;;;;;;;2.85;2.20;;;15.80;59.10;;;;;;5096167;28;20040;-67
2022/05/07 02:57:20;;;;;;;2.78;2.58;;;15.80;59.10;;;;;;5114274;28;20475;-73
2022/05/07 02:59:47;;;;;;;2.60;2.40;;;15.80;59.20;;;;;;5114138;28;20126;-73
2022/05/07 03:02:12;;;;;;;3.58;2.95;;;15.80;59.10;;;;;;5079064;28;20107;-73
2022/05/07 03:04:38;;;;;;;4.03;2.50;;;15.80;59.10;;;;;;5096002;28;20122;-73
2022/05/07 03:07:03;;;;;;;2.33;2.13;;;15.80;59.10;;;;;;5095631;28;20458;-64
2022/05/07 03:09:29;;;;;;;2.53;2.13;;;15.80;59.10;;;;;;5078960;28;20040;-73
2022/05/07 03:11:55;;;;;;;2.55;2.28;;;15.70;59.10;;;;;;5095668;28;20035;-74
2022/05/07 03:14:21;;;;;;;2.95;2.65;;;15.70;59.10;;;;;;5095549;28;20088;-68
2022/05/07 03:16:48;;;;;;;3.40;2.78;;;15.80;59.20;;;;;;5095476;28;20055;-72
2022/05/07 03:19:14;;;;;;;2.78;2.58;;;15.80;59.20;;;;;;5095800;28;20043;-73
2022/05/07 03:21:40;;;;;;;2.75;2.45;;;15.70;59.10;;;;;;5113658;28;20050;-73
2022/05/07 03:24:06;;;;;;;3.92;2.95;;;15.70;59.20;;;;;;5095613;28;20387;-73
2022/05/07 03:26:32;;;;;;;3.85;2.70;;;15.70;59.20;;;;;;5095261;28;20035;-74
2022/05/07 03:28:57;;;;;;;2.70;2.30;;;15.80;59.20;;;;;;5095577;28;20036;-74
2022/05/07 03:31:23;;;;;;;2.85;2.58;;;15.70;59.20;;;;;;5095374;28;20039;-69
2022/05/07 03:33:49;;;;;;;2.67;2.47;;;15.70;59.20;;;;;;5095337;28;20039;-72
2022/05/07 03:36:16;;;;;;;3.42;2.70;;;15.70;59.20;;;;;;5113327;28;20038;-73
2022/05/07 03:38:42;;;;;;;2.75;2.55;;;15.70;59.20;;;;;;5113419;28;20050;-74
2022/05/07 03:41:08;;;;;;;3.38;2.83;;;15.70;59.20;;;;;;5095177;28;20047;-65
2022/05/07 03:43:39;;;;;;;3.38;3.03;;;15.70;59.20;;;;;;5095041;28;20559;-73
2022/05/07 03:46:05;;;;;;;2.83;2.53;;;15.70;59.20;;;;;;5094892;28;20055;-73
2022/05/07 03:48:30;;;;;;;3.78;3.47;;;15.70;59.20;;;;;;5095011;28;20505;-73
2022/05/07 03:50:56;;;;;;;2.70;2.50;;;15.70;59.30;;;;;;5113225;28;20032;-73
2022/05/07 03:53:29;;;;;;;3.22;2.28;;;15.70;59.30;;;;;;5113058;28;20039;-73
2022/05/07 03:55:56;;;;;;;3.28;2.97;;;15.70;59.30;;;;;;5094739;28;20071;-73
2022/05/07 03:58:22;;;;;;;4.50;2.65;;;15.70;59.30;;;;;;5094764;28;20044;-74
2022/05/07 04:00:50;;;;;;;2.60;2.40;;;15.70;60.00;;;;;;5095594;28;20100;-74
2022/05/07 04:03:16;;;;;;;3.28;2.78;;;15.70;59.30;;;;;;5095686;28;20047;-73
2022/05/07 04:05:42;;;;;;;3.92;2.47;;;15.70;59.40;;;;;;5113305;28;20391;-74
2022/05/07 04:08:07;;;;;;;3.35;3.05;;;15.70;59.40;;;;;;5094687;28;20179;-73
2022/05/07 04:10:33;;;;;;;3.80;2.70;;;15.70;59.40;;;;;;5094484;28;20059;-68
2022/05/07 04:12:58;;;;;;;3.53;2.90;;;15.70;59.40;;;;;;5094498;28;20043;-74
2022/05/07 04:15:24;;;;;;;2.95;2.65;;;15.70;59.40;;;;;;5094377;28;20039;-73
2022/05/07 04:17:50;;;;;;;3.30;3.00;;;15.70;59.40;;;;;;5113010;28;20047;-73
2022/05/07 04:20:16;;;;;;;2.63;2.40;;;15.70;59.40;;;;;;5094773;28;20043;-65
2022/05/07 04:22:42;;;;;;;3.63;2.75;;;15.70;59.30;;;;;;5094629;28;20433;-72
2022/05/07 04:25:09;;;;;;;2.72;2.53;;;15.70;59.40;;;;;;5094254;28;20043;-71
2022/05/07 04:27:35;;;;;;;4.13;2.97;;;15.70;59.40;;;;;;5112743;28;20042;-73
2022/05/07 04:30:01;;;;;;;3.03;2.80;;;15.70;59.30;;;;;;5077404;28;20047;-73
2022/05/07 04:32:27;;;;;;;2.78;2.58;;;15.70;59.30;;;;;;5094509;28;20146;-72
2022/05/07 04:34:56;;;;;;;4.13;2.42;;;15.70;59.30;;;;;;5094225;28;20028;-72
2022/05/07 04:37:23;;;;;;;3.38;2.75;;;15.70;59.40;;;;;;5094428;28;20505;-67
2022/05/07 04:39:48;;;;;;;2.88;2.67;;;15.70;59.30;;;;;;5094370;28;20043;-72
2022/05/07 04:42:14;;;;;;;3.22;2.92;;;15.70;59.20;;;;;;5094083;28;20524;-72
2022/05/07 04:44:40;;;;;;;3.05;2.83;;;15.70;59.30;;;;;;5094151;28;20039;-64
2022/05/07 04:47:06;;;;;;;3.05;2.85;;;15.70;59.20;;;;;;5112068;27;20095;-65
2022/05/07 04:49:32;;;;;;;3.53;3.00;;;15.70;59.30;;;;;;5094220;28;20329;-73
2022/05/07 04:51:58;;;;;;;4.15;3.75;;;15.70;59.20;;;;;;5094076;28;20047;-72
2022/05/07 04:54:24;;;;;;;3.10;2.80;;;15.70;59.20;;;;;;5112168;28;20028;-72
2022/05/07 04:56:51;;;;;;;3.85;2.60;;;15.70;59.20;;;;;;5093995;28;20044;-72
2022/05/07 04:59:20;;;;;;;3.33;3.03;;;15.70;59.20;;;;;;5094155;28;20399;-72
2022/05/07 05:01:46;;;;;;;3.53;3.22;;;15.70;59.10;;;;;;5093990;28;20285;-72
2022/05/07 05:04:13;;;;;;;3.47;2.67;;;15.80;59.20;;;;;;5094122;28;20097;-64
2022/05/07 05:06:39;;;;;;;3.40;3.10;;;15.80;59.20;;;;;;5112220;28;20058;-72
2022/05/07 05:09:07;;;;;;;4.30;2.83;;;15.80;59.20;;;;;;5094066;28;20127;-72
2022/05/07 05:11:34;;;;;;;3.00;2.78;;;15.80;59.10;;;;;;5093875;28;20036;-72
2022/05/07 05:13:59;;;;;;;3.72;3.40;;;15.80;59.20;;;;;;5094193;28;20035;-71
2022/05/07 05:16:26;;;;;;;3.15;2.85;;;15.80;59.10;;;;;;5077062;28;20521;-72
2022/05/07 05:18:51;;;;;;;3.30;2.90;;;15.80;59.20;;;;;;5094048;28;20089;-73
2022/05/07 05:21:17;;;;;;;3.80;2.95;;;15.80;59.20;;;;;;5093897;28;20051;-72
2022/05/07 05:23:46;;;;;;;4.40;3.05;;;15.80;59.20;;;;;;5093674;28;20071;-72
2022/05/07 05:26:12;;;;;;;4.68;3.80;;;15.80;59.10;;;;;;5093531;28;20043;-71
2022/05/07 05:28:39;;;;;;;3.17;2.90;;;15.80;59.20;;;;;;5096044;28;20038;-73
2022/05/07 05:31:06;;;;;;;3.30;3.00;;;15.80;59.20;;;;;;5116023;28;20042;-72
2022/05/07 05:33:32;;;;;;;2.83;2.63;;;15.80;59.10;;;;;;5097632;28;20194;-69
2022/05/07 05:35:58;;;;;;;2.95;2.72;;;15.80;59.10;;;;;;5097519;28;20115;-72
2022/05/07 05:38:27;;;;;;;3.30;3.00;;;15.80;59.10;;;;;;5115852;28;20039;-65
2022/05/07 05:40:52;;;;;;;3.03;2.72;;;15.90;59.10;;;;;;5097519;28;20390;-72
2022/05/07 05:43:18;;;;;;;3.25;3.03;;;15.80;59.00;;;;;;5097440;28;20036;-75
2022/05/07 05:45:44;;;;;;;3.50;3.25;;;15.80;58.90;;;;;;5097170;27;20071;-72
2022/05/07 05:48:09;;;;;;;4.80;3.42;;;15.90;59.00;;;;;;5115443;28;20055;-72
2022/05/07 05:50:35;;;;;;;3.60;3.30;;;15.90;58.90;;;;;;5097196;28;20465;-72
2022/05/07 05:53:04;;;;;;;3.05;2.55;;;15.90;58.90;;;;;;5097461;28;20067;-72
2022/05/07 05:55:30;;;;;;;4.70;2.70;;;15.90;58.80;;;;;;5115349;28;20428;-72
2022/05/07 05:57:56;;;;;;;3.22;2.92;;;15.90;58.70;;;;;;5097394;28;20046;-72
2022/05/07 06:00:21;;;;;;;2.47;2.28;;;16.00;58.70;;;;;;5097075;28;20402;-72
2022/05/07 06:02:50;;;;;;;4.05;3.10;;;16.00;58.60;;;;;;5097354;28;20031;-66
2022/05/07 06:05:17;;;;;;;3.22;2.75;;;16.00;58.50;;;;;;5096904;28;20067;-72
2022/05/07 06:07:43;;;;;;;3.47;3.03;;;16.00;58.50;;;;;;5097233;28;20391;-71
2022/05/07 06:10:09;;;;;;;2.55;2.35;;;16.10;58.50;;;;;;5096696;28;20035;-67
2022/05/07 06:12:34;;;;;;;4.97;3.80;;;16.10;58.40;;;;;;5096769;28;20035;-67
2022/05/07 06:15:00;;;;;;;2.92;2.67;;;16.10;58.30;;;;;;5115214;28;20040;-72
2022/05/07 06:17:26;;;;;;;3.58;2.95;;;16.10;58.30;;;;;;5115103;28;20051;-72
2022/05/07 06:19:52;;;;;;;4.15;2.80;;;16.10;58.30;;;;;;5115078;28;20126;-65
2022/05/07 06:22:18;;;;;;;4.47;3.22;;;16.10;58.20;;;;;;5114864;28;20079;-72
2022/05/07 06:27:31;;;;;;;3.10;2.78;;;16.20;58.20;;;;;;5096349;28;20134;-72
2022/05/07 06:30:01;;;;;;;3.78;3.20;;;16.20;58.30;;;;;;5080101;28;20043;-66
2022/05/07 06:32:32;;;;;;;2.95;2.60;;;16.20;58.20;;;;;;5096477;28;20475;-69
2022/05/07 06:34:58;;;;;;;3.15;2.95;;;16.20;58.20;;;;;;5096477;28;20047;-73
2022/05/07 06:37:24;;;;;;;3.72;2.88;;;16.20;58.90;;;;;;5096505;28;20027;-65
2022/05/07 06:39:50;;;;;;;3.33;2.95;;;16.20;58.10;;;;;;5095969;28;20395;-72
2022/05/07 06:42:16;;;;;;;3.35;3.00;;;16.20;58.10;;;;;;5096201;28;20036;-69
2022/05/07 06:44:42;;;;;;;3.50;3.20;;;16.30;58.10;;;;;;5096296;28;20088;-73
2022/05/07 06:47:07;;;;;;;3.90;2.60;;;16.20;58.00;;;;;;5095809;28;20082;-72
2022/05/07 06:49:33;;;;;;;2.70;2.50;;;16.30;58.00;;;;;;5114442;28;20071;-72
2022/05/07 06:51:59;;;;;;;3.05;2.75;;;16.20;58.00;;;;;;5114281;28;20036;-72
2022/05/07 06:54:27;;;;;;;4.22;3.13;;;16.30;57.90;;;;;;5113020;28;20515;-72
2022/05/07 06:56:53;;;;;;;4.32;3.33;;;16.30;57.90;;;;;;5113009;28;20040;-72
2022/05/07 06:59:20;;;;;;;3.42;3.13;;;16.30;57.90;;;;;;5113328;28;20043;-72
2022/05/07 07:01:47;;;;;;;3.05;2.85;;;16.40;57.80;;;;;;5114114;28;20425;-72
2022/05/07 07:04:12;;;;;;;2.70;2.22;;;16.40;57.70;;;;;;5096219;28;20035;-71
2022/05/07 07:06:38;;;;;;;2.70;2.45;;;16.40;57.60;;;;;;5112859;28;20483;-71
2022/05/07 07:09:04;;;;;;;3.30;2.97;;;16.40;57.60;;;;;;5113895;27;20093;-72
2022/05/07 07:11:31;;;;;;;3.40;3.10;;;16.40;57.60;;;;;;5112871;28;20036;-72
2022/05/07 07:13:57;;;;;;;3.83;3.17;;;16.40;57.60;;;;;;5112681;28;20044;-68
2022/05/07 07:16:23;;;;;;;3.97;3.38;;;16.40;57.60;;;;;;5112456;28;20046;-72
2022/05/07 07:18:48;;;;;;;4.20;2.60;;;16.40;57.60;;;;;;5112480;28;20051;-72
2022/05/07 07:21:14;;;;;;;2.60;2.40;;;16.50;57.60;;;;;;5113707;28;20041;-69
2022/05/07 07:23:40;;;;;;;4.03;3.20;;;16.50;57.60;;;;;;5114277;28;20105;-73
2022/05/07 07:26:05;;;;;;;4.05;3.22;;;16.50;57.40;;;;;;5112579;28;20055;-72
2022/05/07 07:28:31;;;;;;;3.95;3.55;;;16.60;57.40;;;;;;5112291;28;20035;-72
2022/05/07 07:30:58;;;;;;;3.42;2.70;;;16.60;57.20;;;;;;5112339;28;20032;-72
2022/05/07 07:33:23;;;;;;;2.80;2.60;;;16.70;57.30;;;;;;5112389;28;20040;-72
2022/05/07 07:35:49;;;;;;;3.97;3.55;;;16.70;57.10;;;;;;5113536;28;20463;-71
2022/05/07 07:38:15;;;;;;;3.25;2.95;;;16.80;57.20;;;;;;5112112;28;20497;-72
2022/05/07 07:40:41;;;;;;;3.97;3.58;;;16.80;57.10;;;;;;5113278;28;20134;-72
2022/05/07 07:43:06;;;;;;;4.07;3.30;;;16.80;56.90;;;;;;5112281;28;20051;-72
2022/05/07 07:48:18;;;;;;;3.58;2.97;;;16.90;56.80;;;;;;5112826;27;20048;-73
2022/05/07 07:50:46;;;;;;;3.55;2.85;;;16.90;56.60;;;;;;5094285;28;20096;-72
2022/05/07 07:53:12;;;;;;;2.80;2.50;;;17.00;56.50;;;;;;5095114;28;20035;-72
2022/05/07 07:55:39;;;;;;;2.38;1.90;;;17.00;56.20;;;;;;5113034;28;20395;-72
2022/05/07 07:58:07;;;;;;;3.28;2.53;;;17.00;56.10;;;;;;5094804;28;20035;-72
2022/05/07 08:00:35;;;;;;;2.85;2.33;;;17.00;56.70;;;;;;5094996;28;20051;-72
2022/05/07 08:03:05;;;;;;;3.78;2.80;;;17.00;55.90;;;;;;5113089;28;20039;-72
2022/05/07 08:05:33;;;;;;;2.42;2.10;;;17.00;55.90;;;;;;5094471;28;20043;-73
2022/05/07 08:13:38;;;;;;;3.28;2.33;;;17.00;56.00;;;;;;5094399;28;20122;-72
2022/05/07 08:16:07;;;;;;;4.85;2.38;;;17.00;55.90;;;;;;5112614;28;20039;-72
2022/05/07 08:18:34;;;;;;;1.98;1.75;;;17.10;55.80;;;;;;5094682;28;20487;-73
2022/05/07 08:21:00;;;;;;;2.00;1.70;;;17.10;55.70;;;;;;5112838;28;20066;-72
2022/05/07 08:23:26;;;;;;;4.45;2.60;;;17.10;55.50;;;;;;5112919;28;20035;-72
2022/05/07 08:25:52;;;;;;;2.00;1.67;;;17.20;55.40;;;;;;5112566;28;20540;-73
2022/05/07 08:28:19;;;;;;;2.40;2.00;;;17.20;55.30;;;;;;5113099;28;20471;-72
2022/05/07 08:30:45;;;;;;;2.90;2.13;;;17.20;55.20;;;;;;5094267;28;20096;-73
2022/05/07 08:33:11;;;;;;;2.55;1.80;;;17.20;55.10;;;;;;5094502;28;20043;-65
2022/05/07 08:35:36;;;;;;;3.25;1.85;;;17.30;55.00;;;;;;5094141;28;20049;-72
2022/05/07 08:38:02;;;;;;;2.28;1.88;;;17.30;54.90;;;;;;5112502;28;20088;-72
2022/05/07 08:40:28;;;;;;;2.50;2.22;;;17.20;54.80;;;;;;5094145;28;20031;-73
2022/05/07 08:42:55;;;;;;;1.75;1.50;;;17.30;54.90;;;;;;5094164;28;20040;-73
2022/05/07 08:45:20;;;;;;;3.50;1.70;;;17.20;54.80;;;;;;5093930;28;20054;-73
2022/05/07 08:47:51;;;;;;;3.05;2.08;;;17.20;54.80;;;;;;5111947;27;20048;-72
2022/05/07 08:50:17;;;;;;;2.45;2.25;;;17.20;54.80;;;;;;5093979;28;20127;-73
2022/05/07 08:52:43;;;;;;;2.40;2.17;;;17.20;54.90;;;;;;5094124;28;20054;-73
2022/05/07 08:55:12;;;;;;;2.63;1.88;;;17.20;54.80;;;;;;5094225;28;20076;-72
2022/05/07 08:57:39;;;;;;;1.70;1.50;;;17.20;54.80;;;;;;5093950;28;20081;-73
2022/05/07 09:00:06;;;;;;;2.35;1.48;;;17.20;54.70;;;;;;5094166;28;20483;-72
2022/05/07 09:02:51;;;;;;;2.50;2.05;;;17.30;54.70;;;;;;5114147;28;20040;-73
2022/05/07 09:05:19;;;;;;;2.42;2.17;;;17.40;54.50;;;;;;5098083;28;20051;-73
2022/05/07 09:10:35;;;;;;;2.65;2.03;;;17.40;54.30;;;;;;5109788;27;20121;-71
2022/05/07 09:16:00;;;;;;;3.08;2.20;;;17.40;54.30;;;;;;5130606;27;20354;-71
2022/05/07 09:18:28;;;;;;;1.85;1.60;;;17.40;54.40;;;;;;5128961;28;20039;-72
2022/05/07 09:21:37;;;;;;;2.45;1.95;;;17.40;54.40;;;;;;5130238;27;20043;-71
2022/05/07 09:26:40;;;;;;;2.22;1.92;;;17.40;54.30;;;;;;5130260;27;20635;-71
2022/05/07 09:29:10;;;;;;;2.03;1.83;;;17.50;54.00;;;;;;5129042;28;20301;-71
2022/05/07 09:31:37;;;;;;;2.28;2.03;;;17.50;53.80;;;;;;5130268;27;20042;-69
2022/05/07 09:36:52;;;;;;;2.45;2.15;;;17.90;53.20;;;;;;5153221;27;1150875;-71
2022/05/07 09:39:18;;;;;;;2.22;2.00;;;18.00;52.80;;;;;;5171854;27;20057;-72
2022/05/07 09:41:44;;;;;;;3.88;2.53;;;18.00;52.70;;;;;;5153301;27;20038;-67
2022/05/07 09:44:11;;;;;;;2.75;2.25;;;18.00;52.80;;;;;;5153169;27;20385;-71
2022/05/07 09:46:38;;;;;;;2.53;1.90;;;17.90;52.80;;;;;;5153075;27;20113;-71
2022/05/07 09:49:05;;;;;;;2.75;2.20;;;18.00;52.80;;;;;;5153243;27;20043;-62
2022/05/07 09:51:31;;;;;;;3.67;2.25;;;18.10;52.60;;;;;;5152903;27;20147;-70
2022/05/07 09:59:32;;;;;;;2.63;2.15;;;17.90;52.70;;;;;;5152693;27;20082;-71
2022/05/07 10:08:48;;;;;;;2.22;2.00;;;17.80;53.30;;;;;;5130084;27;20402;-71
2022/05/07 10:11:16;;;;;;;3.03;1.85;;;17.80;53.40;;;;;;5129959;28;20044;-72
2022/05/07 10:13:52;;;;;;;2.53;2.30;;;17.80;53.50;;;;;;5129045;27;20032;-71
2022/05/07 10:16:21;;;;;;;3.15;2.65;;;17.70;53.60;;;;;;5128840;28;20047;-71
2022/05/07 10:18:47;;;;;;;3.83;2.70;;;17.70;53.70;;;;;;5130289;27;20059;-67
2022/05/07 10:21:14;;;;;;;2.60;1.95;;;17.70;53.70;;;;;;5146380;27;20047;-72
2022/05/07 10:23:52;;;;;;;2.90;2.47;;;17.70;53.70;;;;;;5129994;27;20124;-72
2022/05/07 10:26:19;;;;;;;4.93;2.78;;;17.70;53.70;;;;;;5129977;27;20394;-72
2022/05/07 10:28:45;;;;;;;3.45;2.40;;;17.70;53.70;;;;;;5128547;28;20039;-64
2022/05/07 10:31:26;;;;;;;3.88;2.83;;;17.70;53.80;;;;;;5128616;28;20116;-71
2022/05/07 10:33:51;;;;;;;;;;;17.70;53.80;;;;;;5129152;27;20088;-71
2022/05/07 10:36:20;;;;;;;2.67;2.03;;;17.70;53.90;;;;;;5128691;28;19920;-72
2022/05/07 10:38:46;;;;;;;2.90;2.63;;;17.70;53.70;;;;;;5128457;28;20134;-72
2022/05/07 10:44:04;;;;;;;3.83;2.55;;;17.70;53.70;;;;;;5089416;28;20390;-72
2022/05/07 10:46:39;;;;;;;4.20;2.53;;;17.70;53.70;;;;;;5088429;28;20083;-72
2022/05/07 10:49:08;;;;;;;4.22;2.38;;;17.80;53.70;;;;;;5088351;28;20070;-72
2022/05/07 10:51:36;;;;;;;3.25;2.40;;;17.80;53.80;;;;;;5088536;28;20040;-72
2022/05/07 10:54:15;;;;;;;4.43;1.85;;;17.80;53.70;;;;;;5088264;28;20040;-72
2022/05/07 10:56:47;;;;;;;3.40;2.70;;;17.80;53.70;;;;;;5089368;28;20446;-72
2022/05/07 10:59:12;;;;;;;2.70;2.45;;;17.80;53.70;;;;;;5087880;28;20055;-71
2022/05/07 11:01:38;;;;;;;3.50;3.20;;;17.80;53.70;;;;;;5087775;28;20059;-72
2022/05/07 11:09:26;;;;;;;3.22;2.30;;;17.80;53.70;;;;;;5089522;27;20390;-72
2022/05/07 11:14:32;;;;;;;4.45;3.28;;;17.80;53.80;;;;;;5130315;27;20391;-72
2022/05/07 11:17:01;;;;;;;3.25;2.92;;;17.80;53.80;;;;;;5129361;28;20039;-72
2022/05/07 11:19:29;;;;;;;4.03;2.78;;;17.80;53.80;;;;;;5129447;28;20040;-72
2022/05/07 11:21:56;;;;;;;3.20;2.78;;;17.80;53.80;;;;;;5128852;28;20067;-73
2022/05/07 11:24:25;;;;;;;3.85;2.60;;;17.90;53.90;;;;;;5129090;28;20527;-72
2022/05/07 11:27:00;;;;;;;2.60;2.40;;;17.90;53.90;;;;;;5129030;28;20156;-71
2022/05/07 11:29:26;;;;;;;3.13;2.75;;;17.90;53.90;;;;;;5128709;28;20122;-72
2022/05/07 11:31:56;;;;;;;2.85;2.53;;;17.90;53.90;;;;;;5129060;28;20308;-72
2022/05/07 11:34:31;;;;;;;3.13;2.83;;;17.90;53.80;;;;;;5130176;27;20051;-73
2022/05/07 11:50:33;;;;;;;3.55;3.03;;;17.90;54.00;;;;;;5089249;27;20378;-63
2022/05/07 11:53:20;;;;;;;3.55;2.80;;;17.90;54.10;;;;;;5088273;28;20040;-72
2022/05/07 11:55:48;;;;;;;3.38;2.75;;;17.80;54.20;;;;;;5088263;28;20044;-71
2022/05/07 11:58:16;;;;;;;3.15;2.75;;;17.80;54.20;;;;;;5089240;28;20098;-72
2022/05/07 12:00:44;;;;;;;3.50;2.55;;;17.80;54.20;;;;;;5087981;28;20063;-71
2022/05/07 12:03:17;;;;;;;4.43;3.65;;;17.80;54.30;;;;;;5087775;28;20561;-72
2022/05/07 12:05:46;;;;;;;3.28;2.95;;;17.80;54.20;;;;;;5088106;28;20362;-72
2022/05/07 12:08:18;;;;;;;3.50;3.20;;;17.90;54.30;;;;;;5089233;28;20119;-72
2022/05/07 12:10:45;;;;;;;3.85;3.45;;;17.80;54.30;;;;;;5088089;28;20052;-72
2022/05/07 12:13:13;;;;;;;4.50;3.60;;;17.90;54.40;;;;;;5087690;28;20115;-73
2022/05/07 12:18:25;;;;;;;4.50;4.10;;;17.90;54.40;;;;;;5087443;28;20105;-71
2022/05/07 12:20:51;;;;;;;4.70;3.72;;;17.90;54.50;;;;;;5089094;28;20369;-72
2022/05/07 12:31:37;;;;;;;5.97;3.53;;;17.90;54.50;;;;;;5088498;28;20055;-72
2022/05/07 12:34:04;;;;;;;4.45;4.05;;;17.90;54.50;;;;;;5087636;28;20101;-71
2022/05/07 12:36:31;;;;;;;5.03;4.25;;;17.90;54.50;;;;;;5087249;28;20098;-72
2022/05/07 12:38:59;;;;;;;4.13;3.72;;;17.90;54.60;;;;;;5088298;28;20101;-72
2022/05/07 12:41:26;;;;;;;5.03;3.50;;;17.90;54.60;;;;;;5088170;28;20032;-72
2022/05/07 12:43:53;;;;;;;4.13;3.58;;;17.90;54.70;;;;;;5086990;28;20036;-72
2022/05/07 12:46:19;;;;;;;4.15;3.83;;;17.90;54.80;;;;;;5086915;28;20085;-72
2022/05/07 12:48:45;;;;;;;3.78;3.35;;;17.90;54.80;;;;;;5086694;28;20389;-72
2022/05/07 12:51:11;;;;;;;3.90;3.53;;;17.90;54.90;;;;;;5088071;28;20036;-71
2022/05/07 12:53:37;;;;;;;5.53;3.55;;;17.90;54.90;;;;;;5086567;28;20040;-72
2022/05/07 12:56:04;;;;;;;5.35;4.15;;;17.90;55.00;;;;;;5086861;28;20054;-71
2022/05/07 12:58:29;;;;;;;3.33;3.03;;;17.90;54.90;;;;;;5086850;28;20045;-73
2022/05/07 13:00:56;;;;;;;4.82;3.47;;;18.00;54.90;;;;;;5079879;28;20067;-71
2022/05/07 13:03:22;;;;;;;5.10;4.22;;;17.90;54.80;;;;;;5073353;28;20048;-72
2022/05/07 13:05:48;;;;;;;4.45;3.50;;;17.90;54.90;;;;;;5073210;28;20287;-72
2022/05/07 13:08:14;;;;;;;4.13;3.22;;;18.00;54.90;;;;;;5074488;28;20060;-72
2022/05/07 13:10:41;;;;;;;4.00;3.67;;;18.00;54.80;;;;;;5073407;28;20051;-72
2022/05/07 13:13:07;;;;;;;4.57;3.38;;;18.00;54.80;;;;;;5073422;28;20048;-72
2022/05/07 13:15:33;;;;;;;4.18;3.47;;;18.00;54.90;;;;;;5073295;28;20042;-72
2022/05/07 13:18:00;;;;;;;4.07;3.65;;;17.90;54.90;;;;;;5074353;28;20032;-72
2022/05/07 13:20:27;;;;;;;3.40;3.10;;;17.90;54.90;;;;;;5073207;28;20131;-72
2022/05/07 13:22:53;;;;;;;3.13;2.83;;;18.00;55.00;;;;;;5074208;28;20051;-72
2022/05/07 13:25:19;;;;;;;3.75;3.42;;;17.90;54.90;;;;;;5072977;28;20225;-72
2022/05/07 13:27:46;;;;;;;4.32;3.92;;;18.00;55.00;;;;;;5073105;28;20086;-72
2022/05/07 13:30:12;;;;;;;3.70;2.90;;;18.00;54.90;;;;;;5072945;28;20041;-72
2022/05/07 13:32:38;;;;;;;3.80;3.15;;;18.00;54.90;;;;;;5073099;28;20043;-72
2022/05/07 13:35:04;;;;;;;4.78;3.53;;;18.00;54.80;;;;;;5072704;28;20408;-71
2022/05/07 13:37:30;;;;;;;3.60;3.22;;;18.10;54.70;;;;;;5072687;28;20063;-72
2022/05/07 13:39:56;;;;;;;4.90;3.72;;;18.10;54.70;;;;;;5072824;28;20048;-72
2022/05/07 13:42:23;;;;;;;5.88;4.47;;;18.10;54.70;;;;;;5074133;28;20435;-72
2022/05/07 13:44:50;;;;;;;6.32;4.07;;;18.20;54.70;;;;;;5073000;28;20129;-64
2022/05/07 13:47:16;;;;;;;3.85;3.50;;;18.20;54.70;;;;;;5072508;28;20048;-72
2022/05/07 13:49:41;;;;;;;3.60;3.20;;;18.10;54.70;;;;;;5073578;28;20170;-72
2022/05/07 13:52:08;;;;;;;3.55;3.25;;;18.10;54.80;;;;;;5074087;28;20119;-71
2022/05/07 13:54:34;;;;;;;5.38;3.72;;;18.10;54.90;;;;;;5072605;28;20400;-72
2022/05/07 13:57:00;;;;;;;5.07;4.05;;;18.00;55.00;;;;;;5073989;28;20036;-63
2022/05/07 13:59:28;;;;;;;5.53;4.20;;;18.00;55.10;;;;;;5073592;28;20072;-66